Time;durP1;ratioP1;P1;durP2;ratioP2;P2;SDS_P1;SDS_P2;PMS_P1;PMS_P2;Temp;Humidity;BMP_temperature;BMP_pressure;BME280_temperature;BME280_humidity;BME280_pressure;Samples;Min_cycle;Max_cycle;Signal;HPM_P1;HPM_P2
2021/09/19 00:01:47;;;;;;;14.65;10.40;;;;;;;14.09;79.91;101611.56;5015444;28;20317;-77
2021/09/19 00:04:12;;;;;;;10.68;9.70;;;;;;;14.04;80.40;101609.13;5024695;28;20030;-77
2021/09/19 00:06:37;;;;;;;11.27;10.20;;;;;;;14.04;80.09;101605.63;5024025;28;20072;-77
2021/09/19 00:09:03;;;;;;;11.23;10.23;;;;;;;14.00;80.60;101610.19;5004086;28;20042;-77
2021/09/19 00:11:28;;;;;;;10.98;9.88;;;;;;;14.04;80.26;101614.38;5023545;28;20029;-77
2021/09/19 00:13:54;;;;;;;10.65;9.65;;;;;;;14.08;80.07;101602.81;5016877;28;20095;-78
2021/09/19 00:16:19;;;;;;;10.77;9.88;;;;;;;13.94;80.82;101607.81;5023685;28;20119;-77
2021/09/19 00:18:45;;;;;;;11.07;9.93;;;;;;;13.90;80.59;101615.00;5017033;28;20373;-77
2021/09/19 00:21:11;;;;;;;10.10;9.10;;;;;;;13.94;80.94;101600.75;4991182;28;20037;-77
2021/09/19 00:23:36;;;;;;;10.48;9.48;;;;;;;13.96;80.59;101604.19;5005058;28;20104;-77
2021/09/19 00:26:02;;;;;;;12.15;10.20;;;;;;;13.79;81.12;101604.06;4995862;28;20046;-78
2021/09/19 00:28:27;;;;;;;9.95;8.75;;;;;;;13.84;81.26;101596.81;4999895;28;20081;-77
2021/09/19 00:30:53;;;;;;;11.30;9.73;;;;;;;13.88;81.07;101597.53;5002186;28;20397;-77
2021/09/19 00:33:18;;;;;;;10.88;9.75;;;;;;;13.82;81.01;101591.63;5005185;28;20026;-77
2021/09/19 00:35:44;;;;;;;10.63;9.63;;;;;;;13.78;81.20;101590.03;4991353;28;20060;-78
2021/09/19 00:38:09;;;;;;;11.10;9.20;;;;;;;13.83;81.04;101590.69;4990507;28;20056;-77
2021/09/19 00:40:35;;;;;;;10.65;9.52;;;;;;;13.86;81.23;101594.09;4990697;28;20036;-77
2021/09/19 00:43:00;;;;;;;11.00;9.70;;;;;;;13.85;80.91;101595.03;4991109;28;20277;-77
2021/09/19 00:45:25;;;;;;;10.75;9.68;;;;;;;13.80;81.26;101595.22;5024174;28;20041;-77
2021/09/19 00:47:51;;;;;;;10.68;9.68;;;;;;;13.80;81.40;101588.16;5010493;28;20036;-77
2021/09/19 00:50:19;;;;;;;10.75;9.65;;;;;;;13.71;81.63;101591.19;4993712;28;20345;-77
2021/09/19 00:52:45;;;;;;;13.93;9.90;;;;;;;13.70;81.44;101586.00;4981926;28;20032;-77
2021/09/19 00:55:11;;;;;;;11.18;9.80;;;;;;;13.64;82.07;101592.38;5011614;28;20085;-77
2021/09/19 00:57:42;;;;;;;11.15;9.93;;;;;;;13.65;81.65;101590.63;5002551;28;20029;-77
2021/09/19 01:00:09;;;;;;;11.32;10.25;;;;;;;13.83;81.59;101587.22;5020580;28;20100;-77
2021/09/19 01:04:59;;;;;;;10.77;9.68;;;;;;;13.63;82.00;101583.63;5032757;28;20104;-78
2021/09/19 01:07:25;;;;;;;9.77;8.98;;;;;;;13.64;81.79;101584.47;5018684;28;20033;-78
2021/09/19 01:09:51;;;;;;;12.25;9.85;;;;;;;13.68;81.48;101583.44;5032591;28;20048;-77
2021/09/19 01:12:17;;;;;;;11.23;10.23;;;;;;;13.50;82.42;101585.06;4990781;28;20030;-78
2021/09/19 01:14:42;;;;;;;11.88;10.63;;;;;;;13.47;82.62;101585.19;4995534;28;20076;-78
2021/09/19 01:17:08;;;;;;;12.15;10.93;;;;;;;13.56;82.15;101576.06;4987382;28;20320;-78
2021/09/19 01:19:35;;;;;;;11.50;10.50;;;;;;;13.41;82.65;101572.28;5000212;28;20064;-78
2021/09/19 01:22:01;;;;;;;12.55;11.27;;;;;;;13.46;82.65;101574.72;5012820;28;20042;-78
2021/09/19 01:24:28;;;;;;;11.82;10.68;;;;;;;13.40;82.87;101574.03;4982210;28;20030;-78
2021/09/19 01:26:54;;;;;;;12.43;11.13;;;;;;;13.29;83.33;101576.22;5014440;28;20049;-78
2021/09/19 01:29:19;;;;;;;12.10;10.95;;;;;;;13.34;83.20;101562.94;4991677;28;20033;-78
2021/09/19 01:31:44;;;;;;;11.57;10.50;;;;;;;13.42;82.73;101560.81;5024553;28;20037;-78
2021/09/19 01:34:10;;;;;;;12.50;11.32;;;;;;;13.35;82.98;101562.88;5005707;28;20067;-78
2021/09/19 01:36:36;;;;;;;12.23;11.02;;;;;;;13.28;83.40;101566.63;5005697;28;20072;-78
2021/09/19 01:39:04;;;;;;;13.43;11.93;;;;;;;13.34;83.32;101562.94;4990635;28;20022;-78
2021/09/19 01:41:29;;;;;;;13.30;12.05;;;;;;;13.10;84.27;101555.06;4991792;28;20040;-78
2021/09/19 01:43:55;;;;;;;13.15;11.82;;;;;;;13.23;83.80;101555.44;5024819;28;20029;-78
2021/09/19 01:46:20;;;;;;;12.48;11.45;;;;;;;13.30;83.75;101548.13;5009827;28;20041;-78
2021/09/19 01:48:46;;;;;;;13.50;12.15;;;;;;;13.27;83.82;101549.13;5023055;28;20097;-78
2021/09/19 01:51:11;;;;;;;13.45;11.68;;;;;;;13.11;84.56;101548.88;5005826;28;20072;-78
2021/09/19 01:53:37;;;;;;;11.85;10.85;;;;;;;13.21;84.14;101555.50;5024582;28;20042;-78
2021/09/19 01:56:03;;;;;;;13.80;10.73;;;;;;;13.42;82.56;101559.06;4991315;28;20061;-78
2021/09/19 01:58:29;;;;;;;11.60;10.60;;;;;;;13.23;83.77;101563.31;4986448;28;20029;-78
2021/09/19 02:00:59;;;;;;;12.20;10.27;;;;;;;13.24;83.80;101562.41;5010233;28;20033;-78
2021/09/19 02:03:25;;;;;;;11.80;10.68;;;;;;;13.09;83.96;101569.13;4994315;28;20049;-78
2021/09/19 02:05:50;;;;;;;12.02;10.77;;;;;;;13.15;84.15;101562.75;5027860;28;20033;-78
2021/09/19 02:08:16;;;;;;;11.65;10.55;;;;;;;13.13;84.45;101564.59;5012464;28;20100;-78
2021/09/19 02:10:41;;;;;;;10.52;9.60;;;;;;;13.17;83.85;101555.66;4997235;28;20018;-78
2021/09/19 02:13:06;;;;;;;10.75;9.48;;;;;;;13.21;83.54;101555.50;4993670;28;20034;-78
2021/09/19 02:15:32;;;;;;;14.95;10.55;;;;;;;13.09;84.21;101560.38;4998957;28;20026;-78
2021/09/19 02:17:57;;;;;;;11.82;9.80;;;;;;;13.07;84.43;101553.41;4977558;28;20280;-78
2021/09/19 02:20:23;;;;;;;11.40;10.40;;;;;;;13.10;84.03;101547.19;5000126;28;20247;-78
2021/09/19 02:22:48;;;;;;;12.20;11.10;;;;;;;13.13;84.08;101538.31;5016032;28;20041;-78
2021/09/19 02:25:14;;;;;;;11.60;10.27;;;;;;;12.98;84.55;101545.88;5022192;28;20105;-78
2021/09/19 02:27:39;;;;;;;11.75;10.75;;;;;;;13.01;84.61;101544.94;4993367;28;20159;-78
2021/09/19 02:30:10;;;;;;;12.13;11.07;;;;;;;12.97;84.80;101552.06;4993346;28;20034;-77
2021/09/19 02:32:35;;;;;;;11.38;10.35;;;;;;;12.98;84.76;101545.88;5000181;28;20030;-78
2021/09/19 02:35:00;;;;;;;14.45;10.85;;;;;;;12.99;84.89;101544.97;4993263;28;20021;-78
2021/09/19 02:37:26;;;;;;;12.35;11.23;;;;;;;13.05;84.40;101538.63;5020084;28;20080;-78
2021/09/19 02:39:51;;;;;;;12.65;11.35;;;;;;;12.91;85.07;101538.31;4977086;28;20048;-78
2021/09/19 02:42:17;;;;;;;12.38;11.20;;;;;;;12.91;85.09;101535.69;5040790;28;20229;-78
2021/09/19 02:44:42;;;;;;;13.32;12.02;;;;;;;12.92;84.97;101540.88;5009022;28;20252;-77
2021/09/19 02:47:08;;;;;;;12.68;11.18;;;;;;;12.92;85.23;101535.63;5017058;28;20029;-78
2021/09/19 02:49:33;;;;;;;13.45;12.05;;;;;;;12.94;85.19;101535.56;4993287;28;20042;-78
2021/09/19 02:51:59;;;;;;;16.02;12.02;;;;;;;12.82;85.56;101524.63;4978180;28;20049;-78
2021/09/19 02:54:25;;;;;;;13.50;12.30;;;;;;;12.86;85.64;101533.22;5012717;28;20259;-78
2021/09/19 02:56:50;;;;;;;12.50;11.30;;;;;;;12.82;85.60;101535.13;5028827;28;20056;-78
2021/09/19 02:59:15;;;;;;;13.15;11.85;;;;;;;12.82;85.91;101529.00;5028596;28;20033;-78
2021/09/19 03:01:41;;;;;;;13.23;11.95;;;;;;;12.82;85.87;101529.88;5028545;28;20029;-78
2021/09/19 03:04:06;;;;;;;12.00;11.10;;;;;;;12.90;85.20;101526.06;5018546;28;20033;-77
2021/09/19 03:06:32;;;;;;;14.30;12.90;;;;;;;12.76;85.99;101527.47;5026305;28;20104;-78
2021/09/19 03:08:57;;;;;;;14.07;12.65;;;;;;;12.74;86.13;101526.69;5025288;28;20044;-78
2021/09/19 03:11:23;;;;;;;13.43;12.15;;;;;;;12.87;85.50;101533.16;4995896;28;20045;-78
2021/09/19 03:13:48;;;;;;;13.13;11.93;;;;;;;12.90;85.29;101521.69;4996152;28;20068;-78
2021/09/19 03:16:14;;;;;;;15.73;12.45;;;;;;;12.78;86.05;101525.63;5008011;28;20030;-78
2021/09/19 03:18:39;;;;;;;13.93;12.10;;;;;;;12.76;85.96;101519.59;5012289;28;20049;-78
2021/09/19 03:21:05;;;;;;;13.57;12.38;;;;;;;12.67;85.99;101522.56;5027234;28;20056;-78
2021/09/19 03:23:30;;;;;;;14.27;13.00;;;;;;;12.76;85.78;101519.59;4983702;28;20029;-78
2021/09/19 03:25:56;;;;;;;15.20;12.30;;;;;;;12.64;85.94;101526.19;5000799;28;20352;-78
2021/09/19 03:28:21;;;;;;;15.02;13.45;;;;;;;12.60;87.14;101526.34;4999902;28;20310;-78
2021/09/19 03:30:46;;;;;;;14.65;13.10;;;;;;;12.70;85.97;101525.09;4980259;28;20028;-78
2021/09/19 03:33:12;;;;;;;14.68;13.27;;;;;;;12.62;86.48;101524.50;5012554;28;20036;-78
2021/09/19 03:35:37;;;;;;;16.05;13.80;;;;;;;12.63;86.98;101526.25;5024868;28;20053;-77
2021/09/19 03:38:03;;;;;;;15.10;13.70;;;;;;;12.63;86.55;101521.84;5007990;28;20030;-77
2021/09/19 03:40:28;;;;;;;15.60;13.98;;;;;;;12.53;87.45;101519.63;5007992;28;20274;-77
2021/09/19 03:42:54;;;;;;;15.80;14.27;;;;;;;12.59;86.72;101522.03;5018645;28;20333;-78
2021/09/19 03:45:20;;;;;;;15.18;13.75;;;;;;;12.50;87.22;101512.72;4982334;28;20330;-77
2021/09/19 03:47:45;;;;;;;15.93;14.45;;;;;;;12.58;86.95;101515.03;4982459;28;20027;-77
2021/09/19 03:50:11;;;;;;;18.13;14.10;;;;;;;12.48;87.45;101512.78;5011275;28;20033;-78
2021/09/19 03:52:37;;;;;;;16.52;14.73;;;;;;;12.48;87.27;101520.66;4990784;28;20021;-77
2021/09/19 03:55:03;;;;;;;18.45;16.55;;;;;;;12.40;87.22;101512.19;5004804;28;20252;-77
2021/09/19 03:57:28;;;;;;;19.00;17.05;;;;;;;12.16;89.19;101503.47;4992863;28;20368;-77
2021/09/19 03:59:54;;;;;;;17.55;15.75;;;;;;;12.23;88.92;101512.81;4990357;28;20067;-77
2021/09/19 04:02:19;;;;;;;18.58;16.67;;;;;;;12.15;89.47;101516.63;5003803;28;20032;-78
2021/09/19 04:04:44;;;;;;;20.45;17.77;;;;;;;12.17;89.26;101506.94;5029726;28;20032;-77
2021/09/19 04:07:10;;;;;;;22.10;18.40;;;;;;;12.18;89.39;101509.50;4996799;28;20049;-77
2021/09/19 04:09:35;;;;;;;21.80;18.33;;;;;;;12.18;89.26;101506.03;4994004;28;20033;-77
2021/09/19 04:12:00;;;;;;;21.48;19.23;;;;;;;12.22;89.50;101497.97;5027185;28;20033;-77
2021/09/19 04:14:26;;;;;;;22.45;20.05;;;;;;;12.13;89.38;101487.81;5010470;28;20029;-78
2021/09/19 04:16:52;;;;;;;20.52;18.33;;;;;;;12.19;89.77;101490.22;5005480;28;20048;-78
2021/09/19 04:19:18;;;;;;;23.92;21.20;;;;;;;12.10;89.88;101488.78;5026308;28;20048;-78
2021/09/19 04:21:43;;;;;;;22.90;20.52;;;;;;;12.08;89.83;101489.78;5010508;28;20029;-77
2021/09/19 04:24:09;;;;;;;22.42;20.15;;;;;;;12.16;89.56;101492.97;5011332;28;20049;-77
2021/09/19 04:26:34;;;;;;;21.70;19.52;;;;;;;11.95;90.20;101502.47;5006465;28;20030;-77
2021/09/19 04:28:59;;;;;;;23.38;19.70;;;;;;;12.04;89.76;101501.28;4990958;28;20383;-78
2021/09/19 04:31:25;;;;;;;23.55;21.05;;;;;;;11.94;89.91;101502.53;5007064;28;20048;-79
2021/09/19 04:33:50;;;;;;;22.20;20.00;;;;;;;11.89;90.36;101506.13;5019190;28;20057;-77
2021/09/19 04:36:16;;;;;;;23.27;20.45;;;;;;;12.10;89.59;101501.91;5031466;28;20367;-77
2021/09/19 04:38:41;;;;;;;22.75;20.35;;;;;;;12.01;89.89;101499.63;5029157;28;20021;-77
2021/09/19 04:41:06;;;;;;;22.58;20.38;;;;;;;11.95;90.44;101506.84;5025044;28;20055;-78
2021/09/19 04:43:32;;;;;;;24.25;20.92;;;;;;;11.92;90.63;101505.22;5000389;28;20112;-78
2021/09/19 04:45:57;;;;;;;22.83;20.38;;;;;;;12.06;90.11;101500.31;5013199;28;20044;-77
2021/09/19 04:48:23;;;;;;;24.98;22.38;;;;;;;11.98;90.59;101499.72;5011145;28;20105;-78
2021/09/19 04:50:48;;;;;;;25.02;19.60;;;;;;;11.90;90.12;101505.25;5007808;28;20025;-78
2021/09/19 04:53:13;;;;;;;22.63;20.27;;;;;;;11.89;90.12;101506.13;5012630;28;20037;-78
2021/09/19 04:55:39;;;;;;;22.45;19.42;;;;;;;11.85;90.12;101512.41;5006836;28;20048;-78
2021/09/19 04:58:04;;;;;;;24.35;21.45;;;;;;;11.93;90.50;101509.53;5007042;28;20355;-77
2021/09/19 05:00:30;;;;;;;22.67;20.00;;;;;;;11.78;90.38;101504.81;4997717;28;20051;-77
2021/09/19 05:02:55;;;;;;;25.20;22.52;;;;;;;11.76;90.56;101501.38;5010004;28;20039;-78
2021/09/19 05:05:21;;;;;;;25.15;21.83;;;;;;;11.95;90.45;101502.47;4994084;28;20025;-77
2021/09/19 05:07:46;;;;;;;27.75;22.58;;;;;;;11.73;91.05;101499.69;5009689;28;20328;-77
2021/09/19 05:10:12;;;;;;;26.85;23.33;;;;;;;11.81;90.86;101502.09;5007791;28;20060;-77
2021/09/19 05:12:37;;;;;;;25.92;22.55;;;;;;;11.77;90.81;101501.34;5004457;28;20040;-77
2021/09/19 05:15:03;;;;;;;26.38;22.98;;;;;;;11.83;90.88;101505.50;5023989;28;20029;-77
2021/09/19 05:17:28;;;;;;;23.88;21.15;;;;;;;11.81;90.05;101508.19;4986245;28;20072;-78
2021/09/19 05:19:53;;;;;;;26.67;23.20;;;;;;;11.75;90.78;101510.16;5004385;28;20256;-77
2021/09/19 05:22:19;;;;;;;26.05;23.25;;;;;;;11.72;91.08;101505.88;5024681;28;20346;-77
2021/09/19 05:24:44;;;;;;;25.45;22.65;;;;;;;11.77;90.93;101506.59;5018398;28;20123;-77
2021/09/19 05:27:10;;;;;;;24.67;22.02;;;;;;;11.65;91.21;101504.38;5043100;28;20358;-77
2021/09/19 05:29:35;;;;;;;26.92;23.65;;;;;;;11.67;91.48;101500.78;4997153;28;20041;-77
2021/09/19 05:32:01;;;;;;;26.50;23.30;;;;;;;11.70;91.03;101503.31;5005631;28;20164;-77
2021/09/19 05:34:26;;;;;;;26.10;22.60;;;;;;;11.68;91.05;101504.28;5002848;28;20044;-77
2021/09/19 05:36:51;;;;;;;28.17;22.23;;;;;;;11.84;90.97;101502.84;5017833;28;20054;-77
2021/09/19 05:39:17;;;;;;;23.85;20.58;;;;;;;11.81;90.49;101500.31;5036606;28;20033;-77
2021/09/19 05:41:42;;;;;;;25.05;20.60;;;;;;;11.95;90.35;101504.22;4998639;28;20333;-77
2021/09/19 05:44:08;;;;;;;24.45;20.92;;;;;;;12.03;90.24;101512.72;5028532;28;20084;-78
2021/09/19 05:46:33;;;;;;;24.23;21.73;;;;;;;11.90;90.38;101512.28;5031184;28;20033;-77
2021/09/19 05:48:59;;;;;;;25.35;22.75;;;;;;;12.03;90.05;101505.69;5033051;28;20258;-77
2021/09/19 05:51:26;;;;;;;25.67;23.00;;;;;;;11.93;90.38;101514.78;5037107;28;20075;-77
2021/09/19 05:53:51;;;;;;;24.85;22.30;;;;;;;12.11;89.85;101508.00;5012947;28;20094;-78
2021/09/19 05:56:16;;;;;;;21.83;19.52;;;;;;;12.19;89.42;101507.75;5011635;28;20079;-77
2021/09/19 05:58:42;;;;;;;23.70;21.20;;;;;;;12.31;88.95;101503.81;5027476;28;20041;-77
2021/09/19 06:01:07;;;;;;;21.35;18.98;;;;;;;12.45;88.40;101510.25;5015576;28;20097;-78
2021/09/19 06:03:33;;;;;;;20.75;18.65;;;;;;;12.47;88.32;101513.66;5018308;28;20325;-77
2021/09/19 06:05:58;;;;;;;19.55;17.58;;;;;;;12.48;88.29;101510.16;5019520;28;20021;-77
2021/09/19 06:08:27;;;;;;;20.13;18.02;;;;;;;12.62;86.76;101508.75;5017091;28;20062;-77
2021/09/19 06:10:52;;;;;;;17.88;16.08;;;;;;;12.93;86.82;101521.53;5020534;28;20048;-77
2021/09/19 06:13:18;;;;;;;17.48;15.88;;;;;;;12.91;85.99;101526.00;5036188;28;20045;-77
2021/09/19 06:15:43;;;;;;;16.83;15.32;;;;;;;13.13;85.21;101531.25;5029497;28;20038;-78
2021/09/19 06:18:08;;;;;;;17.10;15.15;;;;;;;13.32;84.97;101525.31;5018375;28;20043;-78
2021/09/19 06:20:34;;;;;;;17.33;15.52;;;;;;;13.23;84.64;101524.72;5015215;28;20236;-77
2021/09/19 06:22:59;;;;;;;17.58;15.82;;;;;;;13.22;84.50;101516.88;5028736;28;20045;-78
2021/09/19 06:25:25;;;;;;;17.80;16.20;;;;;;;13.22;84.15;101517.78;5014400;28;20089;-78
2021/09/19 06:27:50;;;;;;;16.85;15.15;;;;;;;13.36;83.33;101514.59;5017163;28;20044;-78
2021/09/19 06:30:16;;;;;;;19.50;17.30;;;;;;;13.14;84.69;101514.59;5027055;28;20034;-78
2021/09/19 06:32:41;;;;;;;16.30;14.73;;;;;;;13.58;83.05;101517.16;5014309;28;20037;-77
2021/09/19 06:35:07;;;;;;;15.80;14.40;;;;;;;14.03;81.77;101520.50;4993019;28;20034;-77
2021/09/19 06:37:32;;;;;;;16.23;14.73;;;;;;;13.78;82.02;101520.72;4998529;28;20049;-79
2021/09/19 06:39:58;;;;;;;15.35;13.85;;;;;;;14.26;80.22;101516.84;5031215;28;20040;-77
2021/09/19 06:42:23;;;;;;;14.15;12.95;;;;;;;13.96;81.25;101524.34;5028836;28;20063;-78
2021/09/19 06:44:49;;;;;;;14.85;13.55;;;;;;;14.43;79.75;101523.97;5036502;28;20041;-77
2021/09/19 06:47:17;;;;;;;14.93;13.52;;;;;;;14.24;79.87;101528.38;5033039;28;20383;-78
2021/09/19 06:49:43;;;;;;;18.13;14.13;;;;;;;13.96;81.54;101532.25;5002085;28;20371;-78
2021/09/19 06:52:08;;;;;;;14.30;13.10;;;;;;;14.20;81.07;101532.91;4994995;28;20030;-77
2021/09/19 06:54:33;;;;;;;14.18;12.90;;;;;;;14.71;79.00;101536.75;5009231;28;20266;-78
2021/09/19 06:56:59;;;;;;;15.07;12.85;;;;;;;14.69;78.68;101533.34;5016389;28;20030;-77
2021/09/19 06:59:24;;;;;;;12.77;11.73;;;;;;;14.43;79.06;101541.59;5015824;28;20136;-78
2021/09/19 07:01:50;;;;;;;13.80;12.57;;;;;;;14.92;77.79;101540.16;5029790;28;20034;-78
2021/09/19 07:04:19;;;;;;;12.32;11.13;;;;;;;15.16;76.47;101545.19;4983366;28;20365;-77
2021/09/19 07:06:48;;;;;;;13.55;12.25;;;;;;;14.96;78.00;101540.88;4991168;28;20245;-77
2021/09/19 07:09:13;;;;;;;9.60;8.88;;;;;;;16.94;70.15;101550.09;5010594;28;20042;-78
2021/09/19 07:11:39;;;;;;;9.25;8.50;;;;;;;16.33;72.68;101554.25;5011415;28;20044;-77
2021/09/19 07:14:04;;;;;;;11.27;10.20;;;;;;;15.84;74.63;101549.75;5004390;28;20030;-77
2021/09/19 07:16:30;;;;;;;9.43;8.73;;;;;;;16.29;73.21;101557.06;4990235;28;20068;-77
2021/09/19 07:19:08;;;;;;;9.60;8.80;;;;;;;15.76;73.82;101539.59;4983331;28;20302;-77
2021/09/19 07:21:33;;;;;;;9.07;7.05;;;;;;;17.50;69.69;101545.09;4994403;28;20041;-78
2021/09/19 07:23:59;;;;;;;11.07;10.00;;;;;;;16.36;72.37;101543.53;5020900;28;20268;-77
2021/09/19 07:26:24;;;;;;;10.27;9.38;;;;;;;15.88;73.03;101544.25;5007152;28;20050;-79
2021/09/19 07:28:50;;;;;;;9.77;8.45;;;;;;;17.32;70.36;101547.03;5012797;28;20067;-77
2021/09/19 07:31:15;;;;;;;10.98;10.07;;;;;;;16.26;72.15;101549.31;5027082;28;20041;-78
2021/09/19 07:33:41;;;;;;;10.35;9.43;;;;;;;16.57;71.82;101557.34;5014721;28;20092;-78
2021/09/19 07:36:07;;;;;;;10.40;9.60;;;;;;;16.30;71.77;101560.56;5009791;28;20034;-78
2021/09/19 07:38:32;;;;;;;11.20;10.40;;;;;;;16.53;72.10;101555.81;5022353;28;20045;-79
2021/09/19 07:40:58;;;;;;;10.13;9.43;;;;;;;16.33;71.63;101549.81;4997120;28;20037;-78
2021/09/19 07:43:24;;;;;;;10.65;9.75;;;;;;;16.09;73.46;101549.34;5003224;28;20021;-80
2021/09/19 07:45:49;;;;;;;14.25;10.02;;;;;;;16.50;71.78;101552.41;5020689;28;20037;-80
2021/09/19 07:48:15;;;;;;;10.52;9.73;;;;;;;16.03;72.68;101547.88;4995150;28;20037;-78
2021/09/19 07:50:41;;;;;;;11.27;9.60;;;;;;;16.68;71.52;101553.22;5004450;28;20041;-78
2021/09/19 07:53:06;;;;;;;9.48;8.68;;;;;;;16.85;70.91;101552.28;5016030;28;20040;-77
2021/09/19 07:55:33;;;;;;;9.90;9.15;;;;;;;16.80;69.96;101559.59;4998714;28;20124;-79
2021/09/19 07:57:59;;;;;;;9.40;8.65;;;;;;;17.75;67.52;101560.41;5014744;28;20272;-80
2021/09/19 08:00:24;;;;;;;8.13;7.63;;;;;;;18.37;65.70;101558.44;5024192;28;20030;-80
2021/09/19 08:02:50;;;;;;;8.75;8.13;;;;;;;17.76;67.98;101552.38;4996237;28;20048;-80
2021/09/19 08:05:15;;;;;;;8.38;7.78;;;;;;;17.63;67.55;101549.59;4989314;28;20052;-80
2021/09/19 08:07:42;;;;;;;8.98;8.38;;;;;;;18.04;66.52;101556.03;4979163;28;20226;-80
2021/09/19 08:10:08;;;;;;;8.38;7.57;;;;;;;18.20;65.45;101554.16;5006629;28;20061;-80
2021/09/19 08:12:33;;;;;;;8.65;8.02;;;;;;;17.45;67.87;101554.16;5022815;28;20037;-80
2021/09/19 08:14:58;;;;;;;8.70;8.10;;;;;;;17.21;68.27;101552.97;4989153;28;20220;-79
2021/09/19 08:17:24;;;;;;;8.05;7.43;;;;;;;18.17;64.92;101553.47;5012785;28;20053;-80
2021/09/19 08:19:49;;;;;;;8.60;7.80;;;;;;;17.83;66.44;101548.41;4989029;28;20260;-80
2021/09/19 08:22:15;;;;;;;7.72;7.13;;;;;;;18.09;65.71;101550.47;4985671;28;20039;-80
2021/09/19 08:24:40;;;;;;;7.47;6.88;;;;;;;18.64;64.04;101540.88;5011658;28;20049;-80
2021/09/19 08:27:07;;;;;;;8.35;7.57;;;;;;;19.09;63.02;101545.03;5017566;28;20116;-80
2021/09/19 08:29:33;;;;;;;8.85;8.13;;;;;;;18.75;62.53;101554.28;4987244;28;20071;-80
2021/09/19 08:31:58;;;;;;;9.00;7.97;;;;;;;18.74;63.82;101547.28;5013081;28;20108;-80
2021/09/19 08:34:24;;;;;;;9.98;8.98;;;;;;;18.71;63.03;101553.63;5011973;28;20060;-80
2021/09/19 08:36:49;;;;;;;9.23;8.50;;;;;;;19.15;62.00;101547.28;5007458;28;20049;-80
2021/09/19 08:39:14;;;;;;;9.88;8.82;;;;;;;19.68;60.88;101546.44;4990144;28;20068;-80
2021/09/19 08:41:40;;;;;;;9.93;9.10;;;;;;;19.16;61.56;101554.28;5040009;28;20047;-80
2021/09/19 08:44:05;;;;;;;8.60;8.00;;;;;;;19.42;60.39;101558.84;4987867;28;20352;-80
2021/09/19 08:46:31;;;;;;;8.13;7.40;;;;;;;19.92;59.23;101555.44;4990429;28;20045;-80
2021/09/19 08:48:57;;;;;;;7.55;6.72;;;;;;;20.24;58.29;101559.47;4986103;28;20053;-80
2021/09/19 08:51:22;;;;;;;6.90;6.40;;;;;;;19.61;59.38;101571.72;4989422;28;20076;-80
2021/09/19 08:53:48;;;;;;;6.38;5.88;;;;;;;19.95;59.44;101567.66;4992437;28;20348;-80
2021/09/19 08:56:23;;;;;;;6.32;5.82;;;;;;;19.66;59.22;101565.16;5015810;28;20108;-80
2021/09/19 08:58:49;;;;;;;6.65;6.13;;;;;;;18.99;60.52;101567.81;5002843;28;20036;-81
2021/09/19 09:01:15;;;;;;;5.88;5.47;;;;;;;19.12;60.91;101570.56;5005990;28;20053;-82
2021/09/19 09:03:40;;;;;;;7.25;5.65;;;;;;;19.82;59.67;101558.84;5039272;28;20046;-80
2021/09/19 09:06:07;;;;;;;6.45;5.88;;;;;;;19.96;59.06;101560.56;5023422;28;20037;-81
2021/09/19 09:08:33;;;;;;;5.10;4.80;;;;;;;19.79;58.00;101562.53;4994204;28;20022;-80
2021/09/19 09:11:03;;;;;;;6.38;5.97;;;;;;;19.62;59.83;101568.13;4988317;28;20105;-80
2021/09/19 09:13:33;;;;;;;6.00;5.45;;;;;;;21.76;54.49;101574.22;5013336;28;20041;-80
2021/09/19 09:16:05;;;;;;;6.75;5.97;;;;;;;19.88;58.86;101561.94;5029428;28;20045;-80
2021/09/19 09:18:34;;;;;;;7.15;6.65;;;;;;;20.45;57.33;101578.41;5025614;28;20094;-80
2021/09/19 09:21:00;;;;;;;7.07;6.45;;;;;;;20.19;58.07;101572.25;5033059;28;20040;-80
2021/09/19 09:23:36;;;;;;;6.40;6.00;;;;;;;20.42;57.58;101591.91;5014978;28;20052;-80
2021/09/19 09:26:13;;;;;;;9.57;6.00;;;;;;;19.75;59.19;101584.97;5016440;28;20030;-80
2021/09/19 09:28:43;;;;;;;6.68;6.13;;;;;;;19.78;58.99;101584.78;5038068;28;20034;-80
2021/09/19 09:31:09;;;;;;;6.38;5.88;;;;;;;21.28;56.10;101577.72;5031349;28;20045;-79
2021/09/19 09:33:34;;;;;;;6.95;6.30;;;;;;;20.68;57.64;101584.75;5009161;28;20035;-80
2021/09/19 09:36:06;;;;;;;6.35;5.38;;;;;;;21.25;56.10;101576.16;5000088;28;20048;-80
2021/09/19 09:38:31;;;;;;;6.53;6.03;;;;;;;20.68;56.99;101590.09;4990193;28;20201;-80
2021/09/19 09:40:57;;;;;;;6.72;6.13;;;;;;;20.37;57.75;101586.91;5014369;28;20328;-81
2021/09/19 09:43:22;;;;;;;7.38;5.72;;;;;;;21.61;54.61;101581.53;5019329;28;20033;-80
2021/09/19 09:45:48;;;;;;;6.43;5.93;;;;;;;20.58;57.10;101586.38;5023127;28;20093;-81
2021/09/19 09:48:31;;;;;;;6.50;5.90;;;;;;;21.09;55.81;101586.25;5018988;28;20344;-80
2021/09/19 09:51:01;;;;;;;5.88;5.32;;;;;;;21.49;55.30;101583.31;5001728;28;20038;-80
2021/09/19 09:53:26;;;;;;;6.50;6.10;;;;;;;20.61;57.73;101586.16;5014880;28;20066;-81
2021/09/19 09:55:53;;;;;;;5.93;5.63;;;;;;;21.15;56.10;101583.13;4983670;28;20030;-80
2021/09/19 09:58:19;;;;;;;6.38;5.88;;;;;;;22.02;53.26;101580.19;5026998;28;20064;-80
2021/09/19 10:00:45;;;;;;;6.28;5.88;;;;;;;22.26;52.81;101582.78;4987131;28;20291;-79
2021/09/19 10:03:13;;;;;;;6.47;5.97;;;;;;;22.17;52.61;101591.47;5001282;28;20057;-77
2021/09/19 10:05:40;;;;;;;6.25;5.68;;;;;;;21.56;54.86;101597.03;5007384;28;20045;-76
2021/09/19 10:08:06;;;;;;;7.55;6.00;;;;;;;21.28;55.21;101589.25;5008525;28;20041;-76
2021/09/19 10:10:38;;;;;;;7.15;6.55;;;;;;;21.65;54.34;101596.34;5010043;28;20367;-77
2021/09/19 10:13:03;;;;;;;7.55;6.85;;;;;;;21.35;55.15;101594.97;5014161;28;20101;-77
2021/09/19 10:15:29;;;;;;;6.88;6.15;;;;;;;21.88;54.34;101594.56;4988449;28;20042;-77
2021/09/19 10:17:54;;;;;;;6.55;5.95;;;;;;;21.07;55.69;101593.50;5007630;28;20045;-76
2021/09/19 10:20:27;;;;;;;10.48;6.30;;;;;;;21.66;55.21;101585.53;4989879;28;20037;-77
2021/09/19 10:23:01;;;;;;;7.40;6.40;;;;;;;22.38;53.13;101587.16;5001282;28;20214;-77
2021/09/19 10:25:36;;;;;;;6.95;6.45;;;;;;;21.12;56.20;101582.50;5031978;28;20238;-77
2021/09/19 10:28:21;;;;;;;7.40;6.82;;;;;;;21.14;56.67;101577.91;5037667;28;20105;-77
2021/09/19 10:31:09;;;;;;;7.10;6.40;;;;;;;21.06;56.47;101581.13;4988931;28;20055;-76
2021/09/19 10:33:41;;;;;;;6.97;6.55;;;;;;;20.87;56.69;101579.81;5043638;28;20036;-77
2021/09/19 10:36:21;;;;;;;7.38;6.80;;;;;;;21.86;53.47;101572.50;5011426;28;20041;-76
2021/09/19 10:38:46;;;;;;;7.47;6.90;;;;;;;21.33;55.70;101574.75;4991810;28;20052;-77
2021/09/19 10:41:19;;;;;;;6.82;6.32;;;;;;;21.15;56.75;101566.31;5004654;28;20057;-76
2021/09/19 10:44:03;;;;;;;7.35;6.70;;;;;;;22.11;54.50;101570.63;5019257;28;20029;-76
2021/09/19 10:46:34;;;;;;;7.47;6.97;;;;;;;21.50;54.63;101566.34;5015600;28;20296;-77
2021/09/19 10:49:18;;;;;;;7.05;6.53;;;;;;;21.47;56.00;101566.59;5024650;28;20041;-76
2021/09/19 10:51:59;;;;;;;7.25;6.63;;;;;;;22.53;53.92;101565.56;5002370;28;20025;-77
2021/09/19 10:54:49;;;;;;;7.07;6.45;;;;;;;20.86;57.04;101574.59;5022029;28;20364;-77
2021/09/19 10:57:20;;;;;;;7.13;6.32;;;;;;;21.64;54.80;101568.81;5030689;28;20053;-77
2021/09/19 11:00:07;;;;;;;7.45;6.85;;;;;;;21.65;56.03;101561.69;5033691;28;20090;-77
2021/09/19 11:02:33;;;;;;;7.75;6.75;;;;;;;21.01;56.39;101557.53;5022746;28;20072;-76
2021/09/19 11:05:24;;;;;;;6.88;6.30;;;;;;;21.43;56.41;101559.78;5003104;28;20045;-77
2021/09/19 11:07:50;;;;;;;7.63;6.95;;;;;;;20.63;58.70;101570.94;5025678;28;20025;-77
2021/09/19 11:10:16;;;;;;;8.02;7.40;;;;;;;20.84;56.98;101565.88;4988637;28;20055;-76
2021/09/19 11:12:46;;;;;;;8.18;7.57;;;;;;;20.59;57.63;101567.63;5008862;28;20056;-76
2021/09/19 11:15:14;;;;;;;5.90;5.32;;;;;;;20.99;57.07;101569.22;5006067;28;20038;-76